createdAt,value
2018-05-24T00:02:05.324Z,84.00
2018-05-24T00:06:58.743Z,84.70
2018-05-24T00:11:53.003Z,83.50
2018-05-24T00:16:46.442Z,82.90
2018-05-24T00:21:39.892Z,83.40
2018-05-24T00:26:34.082Z,83.90
2018-05-24T00:31:28.581Z,84.30
2018-05-24T00:36:22.030Z,84.30
2018-05-24T00:41:15.451Z,85.50
2018-05-24T00:46:08.888Z,86.30
2018-05-24T00:51:02.297Z,86.80
2018-05-24T00:55:55.712Z,86.70
2018-05-24T01:00:49.382Z,86.60
2018-05-24T01:05:42.883Z,87.20
2018-05-24T01:19:44.900Z,88.60
2018-05-24T01:24:39.066Z,88.40
2018-05-24T01:29:33.429Z,88.30
2018-05-24T01:34:27.416Z,88.40
2018-05-24T01:39:20.867Z,88.50
2018-05-24T01:44:14.313Z,88.00
2018-05-24T01:49:08.524Z,88.20
2018-05-24T01:54:01.934Z,88.20
2018-05-24T01:58:55.367Z,88.20
2018-05-24T02:03:48.803Z,89.10
2018-05-24T02:08:42.211Z,89.40
2018-05-24T02:13:35.664Z,90.30
2018-05-24T02:18:29.105Z,90.60
2018-05-24T02:23:22.579Z,90.40
2018-05-24T02:28:15.967Z,90.30
2018-05-24T02:33:10.172Z,90.30
2018-05-24T02:38:04.362Z,90.10
2018-05-24T02:42:57.871Z,90.10
2018-05-24T02:47:51.304Z,90.60
2018-05-24T02:52:44.712Z,91.00
2018-05-24T02:57:38.235Z,91.10
2018-05-24T03:02:31.680Z,90.80
2018-05-24T03:07:25.192Z,90.80
2018-05-24T03:12:19.396Z,91.20
2018-05-24T03:17:13.609Z,91.30
2018-05-24T03:22:07.049Z,91.30
2018-05-24T03:27:01.216Z,91.40
2018-05-24T03:31:54.867Z,91.40
2018-05-24T03:36:48.314Z,91.60
2018-05-24T03:41:41.751Z,91.60
2018-05-24T03:46:35.182Z,91.40
2018-05-24T03:51:28.607Z,91.20
2018-05-24T03:56:22.933Z,91.10
2018-05-24T04:01:33.930Z,91.00
2018-05-24T04:06:27.348Z,90.90
2018-05-24T04:11:21.559Z,90.10
2018-05-24T04:16:14.980Z,90.10
2018-05-24T04:21:09.318Z,89.50
2018-05-24T04:26:02.827Z,89.10
2018-05-24T04:30:56.333Z,88.90
2018-05-24T04:35:49.777Z,88.80
2018-05-24T04:40:43.198Z,88.50
2018-05-24T04:45:38.332Z,88.20
2018-05-24T04:50:31.813Z,88.20
2018-05-24T04:55:25.344Z,88.00
2018-05-24T05:00:19.576Z,88.50
2018-05-24T05:05:13.333Z,88.30
2018-05-24T05:10:07.972Z,88.80
2018-05-24T05:15:01.392Z,88.70
2018-05-24T05:19:55.696Z,87.70
2018-05-24T05:24:49.302Z,87.60
2018-05-24T05:29:42.714Z,87.60
2018-05-24T05:34:36.132Z,87.40
2018-05-24T05:39:29.614Z,86.30
2018-05-24T05:44:23.092Z,85.70
2018-05-24T05:49:16.612Z,85.70
2018-05-24T05:54:10.138Z,85.10
2018-05-24T05:59:04.303Z,84.90
2018-05-24T06:03:57.689Z,83.40
2018-05-24T06:08:51.060Z,81.30
2018-05-24T06:13:44.467Z,77.80
2018-05-24T06:18:38.188Z,76.20
2018-05-24T06:23:31.622Z,73.60
2018-05-24T06:28:25.063Z,73.40
2018-05-24T06:33:18.609Z,71.90
2018-05-24T06:38:11.953Z,67.30
2018-05-24T06:43:06.143Z,65.30
2018-05-24T06:47:59.666Z,65.10
2018-05-24T06:52:53.075Z,64.20
2018-05-24T06:57:47.003Z,65.10
2018-05-24T07:02:42.148Z,68.00
2018-05-24T07:07:35.556Z,68.00
2018-05-24T07:12:29.235Z,70.20
2018-05-24T07:17:23.602Z,72.40
2018-05-24T07:22:17.368Z,72.40
2018-05-24T07:32:40.005Z,72.10
2018-05-24T07:37:34.142Z,73.80
2018-05-24T07:42:28.970Z,73.80
2018-05-24T07:47:22.769Z,75.10
2018-05-24T07:52:17.261Z,75.10
2018-05-24T07:57:12.921Z,71.70
2018-05-24T08:02:07.399Z,71.70
2018-05-24T08:07:03.198Z,68.50
2018-05-24T08:11:56.930Z,68.50
2018-05-24T08:16:50.775Z,66.00
2018-05-24T08:21:52.161Z,66.70
2018-05-24T08:26:46.322Z,67.40
2018-05-24T08:31:41.105Z,65.90
2018-05-24T08:36:35.060Z,62.40
2018-05-24T08:46:59.964Z,63.60
2018-05-24T08:51:53.560Z,62.10
2018-05-24T08:56:47.115Z,62.40
2018-05-24T09:01:41.321Z,62.30
2018-05-24T09:06:40.728Z,62.00
2018-05-24T09:11:37.090Z,63.60
2018-05-24T09:16:30.697Z,63.90
2018-05-24T09:21:24.967Z,62.40
2018-05-24T09:26:18.384Z,63.10
2018-05-24T09:31:11.951Z,66.10
2018-05-24T09:36:06.169Z,67.10
2018-05-24T09:40:59.586Z,66.30
2018-05-24T09:45:52.989Z,66.70
2018-05-24T09:50:47.178Z,64.60
2018-05-24T09:55:41.290Z,65.80
2018-05-24T10:00:34.702Z,65.70
2018-05-24T10:05:28.542Z,66.10
2018-05-24T10:10:21.990Z,63.70
2018-05-24T10:15:15.780Z,63.40
2018-05-24T10:20:10.029Z,61.30
2018-05-24T10:25:03.385Z,60.00
2018-05-24T10:29:56.839Z,60.00
2018-05-24T10:34:50.315Z,59.80
2018-05-24T10:39:44.422Z,59.00
2018-05-24T10:44:37.848Z,59.00
2018-05-24T10:49:33.692Z,60.60
2018-05-24T10:54:27.458Z,59.40
2018-05-24T10:59:21.515Z,58.10
2018-05-24T11:04:16.436Z,58.50
2018-05-24T11:18:19.305Z,53.30
2018-05-24T11:23:14.197Z,53.20
2018-05-24T11:28:09.296Z,50.80
2018-05-24T11:33:04.613Z,50.80
2018-05-24T11:37:58.748Z,49.70
2018-05-24T11:42:52.354Z,49.70
2018-05-24T11:47:48.864Z,48.60
2018-05-24T11:52:43.480Z,48.20
2018-05-24T11:57:38.163Z,48.20
2018-05-24T12:02:31.966Z,47.00
2018-05-24T12:12:54.418Z,43.40
2018-05-24T12:17:48.643Z,46.10
2018-05-24T12:28:11.817Z,45.70
2018-05-24T12:33:05.553Z,46.00
2018-05-24T12:37:59.749Z,45.50
2018-05-24T12:42:53.099Z,45.60
2018-05-24T12:47:47.277Z,45.30
2018-05-24T12:58:13.679Z,44.00
2018-05-24T13:03:08.282Z,45.50
2018-05-24T13:08:03.649Z,45.30
2018-05-24T13:12:59.376Z,42.50
2018-05-24T13:17:54.439Z,42.50
2018-05-24T13:33:46.402Z,41.00
2018-05-24T13:38:42.786Z,40.10
2018-05-24T13:43:36.990Z,41.00
2018-05-24T13:48:30.777Z,40.90
2018-05-24T13:53:25.792Z,38.90
2018-05-24T14:03:50.294Z,38.60
2018-05-24T14:08:45.860Z,41.00
2018-05-24T14:19:12.414Z,40.50
2018-05-24T14:24:08.200Z,40.20
2018-05-24T14:29:02.635Z,40.60
2018-05-24T14:55:54.069Z,41.00
2018-05-24T15:00:53.509Z,41.90
2018-05-24T15:05:59.292Z,41.30
2018-05-24T15:10:55.120Z,41.30
2018-05-24T15:15:52.068Z,41.40
2018-05-24T15:20:46.643Z,41.40
2018-05-24T15:25:43.061Z,41.60
2018-05-24T15:30:38.717Z,41.10
2018-05-24T15:35:37.924Z,41.10
2018-05-24T15:40:44.202Z,41.90
2018-05-24T15:45:38.182Z,40.80
2018-05-24T15:50:32.168Z,40.80
2018-05-24T15:55:26.987Z,41.10
2018-05-24T16:05:52.625Z,40.70
2018-05-24T16:10:47.344Z,40.70
2018-05-24T16:15:43.091Z,40.60
2018-05-24T16:20:36.659Z,40.90
2018-05-24T16:25:30.598Z,40.30
2018-05-24T16:30:25.069Z,39.30
2018-05-24T16:35:18.664Z,39.20
2018-05-24T16:40:12.313Z,39.70
2018-05-24T16:45:06.919Z,39.40
2018-05-24T16:50:00.714Z,39.40
2018-05-24T16:54:54.527Z,40.00
2018-05-24T16:59:49.754Z,40.00
2018-05-24T17:04:43.618Z,40.00
2018-05-24T17:09:37.269Z,39.80
2018-05-24T17:14:31.054Z,38.60
2018-05-24T17:19:24.805Z,39.70
2018-05-24T17:24:18.625Z,39.20
2018-05-24T17:29:12.345Z,39.60
2018-05-24T17:34:06.057Z,40.30
2018-05-24T17:39:01.568Z,43.20
2018-05-24T17:43:56.141Z,44.20
2018-05-24T17:48:49.910Z,44.20
2018-05-24T17:53:43.524Z,43.90
2018-05-24T17:58:37.993Z,44.50
2018-05-24T18:03:31.700Z,44.50
2018-05-24T18:08:25.451Z,44.80
2018-05-24T18:13:19.169Z,45.80
2018-05-24T18:18:12.820Z,47.30
2018-05-24T18:23:07.564Z,47.50
2018-05-24T18:28:01.399Z,47.40
2018-05-24T18:32:55.358Z,47.90
2018-05-24T18:52:21.389Z,53.60
2018-05-24T18:57:15.080Z,54.00
2018-05-24T19:02:09.695Z,56.50
2018-05-24T19:07:03.424Z,58.90
2018-05-24T19:11:57.037Z,60.60
2018-05-24T19:16:51.696Z,61.80
2018-05-24T19:21:45.473Z,61.80
2018-05-24T19:26:39.335Z,63.00
2018-05-24T19:31:32.968Z,62.70
2018-05-24T19:36:26.606Z,63.10
2018-05-24T19:50:28.692Z,63.10
2018-05-24T19:55:22.584Z,62.40
2018-05-24T20:00:17.273Z,63.80
2018-05-24T20:05:11.230Z,64.70
2018-05-24T20:10:05.812Z,66.60
2018-05-24T20:14:59.849Z,66.50
2018-05-24T20:19:53.587Z,66.50
2018-05-24T20:24:47.274Z,66.70
2018-05-24T20:29:40.974Z,65.70
2018-05-24T20:34:34.920Z,65.20
2018-05-24T20:39:29.895Z,66.10
2018-05-24T20:44:24.393Z,66.30
2018-05-24T20:49:19.037Z,66.70
2018-05-24T20:54:13.094Z,66.60
2018-05-24T20:59:06.686Z,66.70
2018-05-24T21:04:01.084Z,68.00
2018-05-24T21:18:04.194Z,68.10
2018-05-24T21:22:58.835Z,69.00
2018-05-24T21:27:52.455Z,69.50
2018-05-24T21:41:54.439Z,71.00
2018-05-24T21:46:49.079Z,70.80
2018-05-24T21:51:43.015Z,71.10
2018-05-24T21:56:37.554Z,73.30
2018-05-24T22:01:31.187Z,73.30
2018-05-24T22:06:26.860Z,74.20
2018-05-24T22:11:20.748Z,74.20
2018-05-24T22:16:14.748Z,75.30
2018-05-24T22:21:08.493Z,75.30
2018-05-24T22:26:02.302Z,76.20
2018-05-24T22:30:56.270Z,76.80
2018-05-24T22:35:50.765Z,77.00
2018-05-24T22:40:44.511Z,77.70
2018-05-24T22:45:38.690Z,78.20
2018-05-24T22:50:32.539Z,78.20
2018-05-24T22:55:26.402Z,78.90
2018-05-24T23:00:20.220Z,79.10
2018-05-24T23:05:14.564Z,79.80
2018-05-24T23:10:08.412Z,80.00
2018-05-24T23:15:03.206Z,80.50
2018-05-24T23:19:57.947Z,80.50
2018-05-24T23:24:51.722Z,80.90
2018-05-24T23:29:46.308Z,81.90
2018-05-24T23:34:40.059Z,81.90
2018-05-24T23:39:34.862Z,81.90
2018-05-24T23:44:29.469Z,82.00
2018-05-24T23:49:24.425Z,83.00
2018-05-24T23:54:18.167Z,83.00
2018-05-24T23:59:11.993Z,83.30
